Time;durP1;ratioP1;P1;durP2;ratioP2;P2;SDS_P1;SDS_P2;PMS_P1;PMS_P2;Temp;Humidity;BMP_temperature;BMP_pressure;BME280_temperature;BME280_humidity;BME280_pressure;Samples;Min_cycle;Max_cycle;Signal;HPM_P1;HPM_P2
2023/04/10 00:00:02;;;;;;;8.50;7.57;;;6.80;99.90;;;;;;5075826;28;20209;-56
2023/04/10 00:02:29;;;;;;;10.40;7.93;;;6.90;99.90;;;;;;5075424;28;20213;-57
2023/04/10 00:04:58;;;;;;;10.57;8.33;;;7.00;99.90;;;;;;5075338;28;20251;-57
2023/04/10 00:07:25;;;;;;;9.70;8.10;;;7.10;99.90;;;;;;5076138;28;20284;-58
2023/04/10 00:09:52;;;;;;;9.60;7.63;;;7.10;99.90;;;;;;5079347;28;20213;-58
2023/04/10 00:12:19;;;;;;;9.80;7.47;;;7.10;99.90;;;;;;5079090;28;20247;-57
2023/04/10 00:14:46;;;;;;;8.87;7.60;;;7.20;99.90;;;;;;5078680;28;20285;-58
2023/04/10 00:17:13;;;;;;;11.37;8.17;;;7.20;99.90;;;;;;5078278;28;20216;-57
2023/04/10 00:19:39;;;;;;;9.17;7.70;;;7.20;99.90;;;;;;5078532;28;20229;-57
2023/04/10 00:22:08;;;;;;;9.77;7.60;;;7.20;99.90;;;;;;5078544;28;20213;-56
2023/04/10 00:24:35;;;;;;;8.67;7.50;;;7.20;99.90;;;;;;5078406;28;20576;-57
2023/04/10 00:27:02;;;;;;;8.40;7.50;;;7.10;99.90;;;;;;5077789;28;20304;-57
2023/04/10 00:29:29;;;;;;;10.33;7.70;;;7.10;99.90;;;;;;5077100;28;20326;-57
2023/04/10 00:31:55;;;;;;;8.43;7.07;;;7.00;99.90;;;;;;5076949;28;20211;-57
2023/04/10 00:34:22;;;;;;;9.77;8.30;;;7.00;99.90;;;;;;5077286;28;20545;-58
2023/04/10 00:36:49;;;;;;;10.67;7.87;;;6.90;99.90;;;;;;5077286;28;20207;-57
2023/04/10 00:39:18;;;;;;;9.77;8.17;;;6.80;99.90;;;;;;5077086;28;20256;-58
2023/04/10 00:41:44;;;;;;;9.37;7.40;;;6.70;99.90;;;;;;5076864;28;20224;-56
2023/04/10 00:44:12;;;;;;;10.17;7.80;;;6.60;99.90;;;;;;5076908;28;20700;-57
2023/04/10 00:46:40;;;;;;;9.33;7.73;;;6.50;99.90;;;;;;5077406;28;20637;-57
2023/04/10 00:49:08;;;;;;;10.07;7.87;;;6.40;99.90;;;;;;5076588;28;20443;-57
2023/04/10 00:51:36;;;;;;;9.53;7.93;;;6.40;99.90;;;;;;5076351;28;20209;-58
2023/04/10 00:54:05;;;;;;;10.70;8.43;;;6.30;99.90;;;;;;5076695;28;20223;-57
2023/04/10 00:56:34;;;;;;;11.30;8.73;;;6.30;99.90;;;;;;5076706;28;20716;-59
2023/04/10 00:59:01;;;;;;;10.60;8.20;;;6.20;99.90;;;;;;5076871;28;20274;-57
2023/04/10 01:01:28;;;;;;;10.27;8.33;;;6.20;99.90;;;;;;5076765;28;20296;-58
2023/04/10 01:03:55;;;;;;;9.93;8.07;;;6.30;99.90;;;;;;5076211;28;20699;-56
2023/04/10 01:06:30;;;;;;;9.23;8.07;;;6.20;99.90;;;;;;5075944;28;20227;-55
2023/04/10 01:09:05;;;;;;;10.13;8.10;;;6.20;99.90;;;;;;5076780;28;20232;-56
2023/04/10 01:11:45;;;;;;;9.90;8.37;;;6.30;99.90;;;;;;5076994;28;20222;-56
2023/04/10 01:14:19;;;;;;;10.80;8.73;;;6.20;99.90;;;;;;5075982;28;20676;-56
2023/04/10 01:16:51;;;;;;;9.40;8.33;;;6.20;99.90;;;;;;5076360;28;20243;-56
2023/04/10 01:19:31;;;;;;;9.07;7.17;;;6.20;99.90;;;;;;5075919;28;20266;-56
2023/04/10 01:22:02;;;;;;;8.07;7.20;;;6.20;99.90;;;;;;5077110;28;20200;-56
2023/04/10 01:24:48;;;;;;;10.70;7.90;;;6.20;99.90;;;;;;5076925;28;20209;-56
2023/04/10 01:27:28;;;;;;;9.67;7.27;;;6.20;99.90;;;;;;5076262;28;20209;-56
2023/04/10 01:30:01;;;;;;;9.80;7.80;;;6.30;99.90;;;;;;5077513;28;20585;-56
2023/04/10 01:32:30;;;;;;;10.53;8.37;;;6.30;99.90;;;;;;5076472;28;20205;-57
2023/04/10 01:35:00;;;;;;;10.03;8.00;;;6.30;99.90;;;;;;5076288;28;20243;-57
2023/04/10 01:37:30;;;;;;;9.90;8.30;;;6.30;99.90;;;;;;5077453;28;20259;-56
2023/04/10 01:40:00;;;;;;;8.87;7.40;;;6.20;99.90;;;;;;5076811;28;20208;-57
2023/04/10 01:42:30;;;;;;;11.63;7.70;;;6.20;99.90;;;;;;5076985;28;20273;-57
2023/04/10 01:44:59;;;;;;;10.23;8.27;;;6.10;99.90;;;;;;5076956;28;20221;-58
2023/04/10 01:47:27;;;;;;;9.37;7.63;;;6.10;99.90;;;;;;5076206;28;20209;-56
2023/04/10 01:49:56;;;;;;;10.73;7.97;;;6.00;99.90;;;;;;5076184;28;20221;-55
2023/04/10 01:52:25;;;;;;;9.73;7.63;;;5.70;99.90;;;;;;5077555;28;20205;-56
2023/04/10 01:54:53;;;;;;;8.50;7.13;;;5.60;99.90;;;;;;5076436;28;20212;-57
2023/04/10 01:57:20;;;;;;;9.67;7.33;;;5.50;99.90;;;;;;5076900;28;20288;-56
2023/04/10 01:59:49;;;;;;;8.93;7.43;;;5.40;99.90;;;;;;5076121;28;20197;-56
2023/04/10 02:02:17;;;;;;;7.73;6.80;;;5.40;99.90;;;;;;5076474;28;20592;-56
2023/04/10 02:04:47;;;;;;;11.13;7.90;;;5.10;99.90;;;;;;5077104;28;20296;-56
2023/04/10 02:07:19;;;;;;;9.80;7.20;;;5.00;99.90;;;;;;5076945;28;20208;-56
2023/04/10 02:09:51;;;;;;;9.90;7.70;;;4.90;99.90;;;;;;5076457;28;20282;-55
2023/04/10 02:12:22;;;;;;;8.90;7.50;;;4.90;99.90;;;;;;5076037;28;20224;-56
2023/04/10 02:14:51;;;;;;;8.97;7.30;;;4.80;99.90;;;;;;5076807;28;20254;-55
2023/04/10 02:17:23;;;;;;;8.73;7.63;;;4.80;99.90;;;;;;5075939;28;20205;-56
2023/04/10 02:19:53;;;;;;;8.97;7.17;;;4.80;99.90;;;;;;5075805;28;20213;-55
2023/04/10 02:22:20;;;;;;;9.17;7.10;;;4.80;99.90;;;;;;5075693;28;20201;-55
2023/04/10 02:24:48;;;;;;;9.80;7.70;;;4.70;99.90;;;;;;5076021;28;20590;-56
2023/04/10 02:27:15;;;;;;;9.93;6.97;;;4.70;99.90;;;;;;5073019;28;20219;-55
2023/04/10 02:29:42;;;;;;;10.47;7.33;;;4.60;99.90;;;;;;5074615;28;20233;-55
2023/04/10 02:32:09;;;;;;;9.93;7.50;;;4.50;99.90;;;;;;5074114;28;20212;-56
2023/04/10 02:34:37;;;;;;;9.33;7.67;;;4.40;99.90;;;;;;5074403;28;20204;-56
2023/04/10 02:37:04;;;;;;;8.57;6.87;;;4.40;99.90;;;;;;5074836;28;20209;-56
2023/04/10 02:39:31;;;;;;;9.50;7.20;;;4.40;99.90;;;;;;5074667;28;20583;-56
2023/04/10 02:41:58;;;;;;;8.53;6.87;;;4.50;99.90;;;;;;5074549;28;20576;-57
2023/04/10 02:44:25;;;;;;;10.00;7.47;;;4.50;99.90;;;;;;5074883;28;20205;-57
2023/04/10 02:46:52;;;;;;;8.63;7.53;;;4.60;99.90;;;;;;5074670;28;20209;-56
2023/04/10 02:49:19;;;;;;;9.80;7.50;;;4.60;99.90;;;;;;5074641;28;20228;-56
2023/04/10 02:51:48;;;;;;;9.30;7.57;;;4.70;99.90;;;;;;5074120;28;20204;-56
2023/04/10 02:54:14;;;;;;;8.90;7.80;;;4.80;99.90;;;;;;5074575;28;20579;-56
2023/04/10 02:56:41;;;;;;;9.23;7.60;;;4.90;99.90;;;;;;5074014;28;20216;-57
2023/04/10 02:59:08;;;;;;;10.53;7.87;;;5.00;99.90;;;;;;5074232;28;20253;-56
2023/04/10 03:01:35;;;;;;;9.27;6.97;;;5.00;99.90;;;;;;5073509;28;20208;-56
2023/04/10 03:04:03;;;;;;;8.50;7.00;;;5.10;99.90;;;;;;5073945;28;20212;-55
2023/04/10 03:06:30;;;;;;;9.90;7.83;;;5.20;99.90;;;;;;5073533;28;20205;-56
2023/04/10 03:08:58;;;;;;;9.23;7.40;;;5.20;99.90;;;;;;5073763;28;20220;-56
2023/04/10 03:11:25;;;;;;;8.63;7.37;;;5.20;99.90;;;;;;5073927;28;20219;-56
2023/04/10 03:13:52;;;;;;;10.40;7.47;;;5.20;99.90;;;;;;5073746;28;20224;-56
2023/04/10 03:16:19;;;;;;;9.23;7.50;;;5.30;99.90;;;;;;5073419;28;20224;-57
2023/04/10 03:18:46;;;;;;;10.97;7.03;;;5.30;99.90;;;;;;5073876;28;20255;-57
2023/04/10 03:21:13;;;;;;;8.83;6.83;;;5.40;99.90;;;;;;5073690;28;20244;-56
2023/04/10 03:23:40;;;;;;;8.37;6.90;;;5.50;99.90;;;;;;5073549;28;20205;-56
2023/04/10 03:26:08;;;;;;;10.03;7.40;;;5.50;99.90;;;;;;5073667;28;20205;-56
2023/04/10 03:28:35;;;;;;;8.87;7.63;;;5.50;99.90;;;;;;5073470;28;20240;-57
2023/04/10 03:31:03;;;;;;;8.47;7.10;;;5.50;99.90;;;;;;5073442;28;20212;-57
2023/04/10 03:33:30;;;;;;;9.70;7.80;;;5.30;99.90;;;;;;5073625;28;20208;-57
2023/04/10 03:35:57;;;;;;;9.83;7.67;;;5.20;99.90;;;;;;5073442;28;20550;-56
2023/04/10 03:38:24;;;;;;;9.57;7.40;;;5.10;99.90;;;;;;5073447;28;20228;-56
2023/04/10 03:40:52;;;;;;;9.27;7.70;;;4.90;99.90;;;;;;5073451;28;20300;-55
2023/04/10 03:43:20;;;;;;;9.87;7.27;;;4.80;99.90;;;;;;5077169;28;20223;-56
2023/04/10 03:45:47;;;;;;;10.63;8.10;;;4.70;99.90;;;;;;5077154;28;20292;-56
2023/04/10 03:48:14;;;;;;;10.00;7.70;;;4.60;99.90;;;;;;5077015;28;20220;-57
2023/04/10 03:50:41;;;;;;;9.43;7.47;;;4.60;99.90;;;;;;5077285;28;20205;-57
2023/04/10 03:53:08;;;;;;;9.70;7.80;;;4.60;99.90;;;;;;5077121;28;20201;-57
2023/04/10 03:55:35;;;;;;;9.20;7.63;;;4.50;99.90;;;;;;5077223;28;20205;-56
2023/04/10 03:58:02;;;;;;;8.73;7.37;;;4.50;99.90;;;;;;5076650;28;20224;-56
2023/04/10 04:00:32;;;;;;;10.93;7.67;;;4.50;99.90;;;;;;5076949;28;20232;-57
2023/04/10 04:02:59;;;;;;;9.93;7.60;;;4.50;99.90;;;;;;5076582;28;20664;-57
2023/04/10 04:05:27;;;;;;;9.63;7.33;;;4.40;99.90;;;;;;5076576;28;20209;-56
2023/04/10 04:07:54;;;;;;;9.20;7.13;;;4.30;99.90;;;;;;5076515;28;20247;-57
2023/04/10 04:10:20;;;;;;;9.33;7.67;;;4.30;99.90;;;;;;5076441;28;20316;-57
2023/04/10 04:12:47;;;;;;;9.03;7.03;;;4.20;99.90;;;;;;5076476;28;20676;-57
2023/04/10 04:15:14;;;;;;;8.63;7.00;;;4.10;99.90;;;;;;5076521;28;20205;-57
2023/04/10 04:17:45;;;;;;;10.00;7.03;;;4.10;99.90;;;;;;5076521;28;20231;-57
2023/04/10 04:20:12;;;;;;;6.80;6.00;;;4.10;99.90;;;;;;5076818;28;20208;-56
2023/04/10 04:22:39;;;;;;;8.80;6.80;;;4.00;99.90;;;;;;5076466;28;20680;-57
2023/04/10 04:25:09;;;;;;;8.20;6.80;;;3.90;99.90;;;;;;5076359;28;20218;-55
2023/04/10 04:27:36;;;;;;;9.07;7.03;;;3.90;99.90;;;;;;5076412;28;20570;-56
2023/04/10 04:30:03;;;;;;;8.93;7.00;;;3.90;99.90;;;;;;5076550;28;20235;-55
2023/04/10 04:32:30;;;;;;;9.03;7.40;;;4.00;99.90;;;;;;5076886;28;20609;-56
2023/04/10 04:34:58;;;;;;;8.40;6.67;;;3.90;99.90;;;;;;5077149;28;20268;-55
2023/04/10 04:37:25;;;;;;;8.43;7.00;;;3.80;99.90;;;;;;5076489;28;20201;-56
2023/04/10 04:39:52;;;;;;;8.60;7.07;;;3.80;99.90;;;;;;5076711;28;20669;-56
2023/04/10 04:42:19;;;;;;;8.93;7.07;;;3.90;99.90;;;;;;5076838;28;20236;-55
2023/04/10 04:44:45;;;;;;;9.83;7.23;;;4.10;99.90;;;;;;5076722;28;20205;-56
2023/04/10 04:47:12;;;;;;;7.53;6.63;;;4.30;99.90;;;;;;5076389;28;20586;-56
2023/04/10 04:49:39;;;;;;;8.33;6.43;;;4.40;99.90;;;;;;5076280;28;20249;-56
2023/04/10 04:52:08;;;;;;;7.60;6.43;;;4.60;99.90;;;;;;5075873;28;20685;-56
2023/04/10 04:54:34;;;;;;;8.37;6.77;;;4.60;99.90;;;;;;5074594;28;20562;-57
2023/04/10 04:57:01;;;;;;;8.97;6.53;;;4.70;99.90;;;;;;5075535;28;20208;-56
2023/04/10 04:59:28;;;;;;;9.23;7.17;;;4.80;99.90;;;;;;5075715;28;20221;-56
2023/04/10 05:01:55;;;;;;;8.20;6.63;;;5.00;99.90;;;;;;5076688;28;20258;-56
2023/04/10 05:04:22;;;;;;;8.07;6.50;;;5.20;99.90;;;;;;5075831;28;20204;-57
2023/04/10 05:06:48;;;;;;;7.50;6.50;;;5.40;99.90;;;;;;5075718;28;20216;-57
2023/04/10 05:09:17;;;;;;;8.57;6.73;;;5.60;99.90;;;;;;5076080;28;20615;-59
2023/04/10 05:11:44;;;;;;;8.60;6.47;;;5.80;99.90;;;;;;5076295;28;20213;-57
2023/04/10 05:14:11;;;;;;;8.10;6.80;;;6.00;99.90;;;;;;5076287;28;20240;-57
2023/04/10 05:16:37;;;;;;;7.13;6.23;;;6.10;99.90;;;;;;5075867;28;20259;-56
2023/04/10 05:19:04;;;;;;;7.17;6.13;;;6.30;99.90;;;;;;5075732;28;20612;-57
2023/04/10 05:21:31;;;;;;;7.93;6.47;;;6.50;99.90;;;;;;5076385;28;20205;-57
2023/04/10 05:23:58;;;;;;;7.53;5.97;;;6.70;99.90;;;;;;5076645;28;20727;-57
2023/04/10 05:26:26;;;;;;;7.57;6.20;;;6.90;99.90;;;;;;5075557;28;20208;-56
2023/04/10 05:28:53;;;;;;;8.07;6.37;;;7.10;99.90;;;;;;5075888;28;20761;-57
2023/04/10 05:31:20;;;;;;;7.97;6.37;;;7.30;99.90;;;;;;5075896;28;20703;-58
2023/04/10 05:33:46;;;;;;;7.27;6.10;;;7.50;99.90;;;;;;5075879;28;20271;-58
2023/04/10 05:36:13;;;;;;;7.80;6.00;;;7.70;99.90;;;;;;5075534;28;20216;-58
2023/04/10 05:38:40;;;;;;;7.63;6.33;;;7.90;99.90;;;;;;5075680;28;20308;-57
2023/04/10 05:41:07;;;;;;;6.97;5.80;;;8.10;99.90;;;;;;5075378;28;20640;-58
2023/04/10 05:43:35;;;;;;;8.17;6.17;;;8.40;99.90;;;;;;5075749;28;20216;-60
2023/04/10 05:46:02;;;;;;;6.93;6.00;;;8.90;99.90;;;;;;5075240;28;20282;-58
2023/04/10 05:48:28;;;;;;;6.73;6.03;;;9.50;99.90;;;;;;5074903;28;20232;-58
2023/04/10 05:50:55;;;;;;;7.27;5.43;;;10.00;99.90;;;;;;5075433;28;20604;-58
2023/04/10 05:53:30;;;;;;;7.80;5.50;;;10.60;99.90;;;;;;5075199;28;20665;-58
2023/04/10 05:55:58;;;;;;;6.83;5.63;;;11.40;99.90;;;;;;5075772;28;20609;-58
2023/04/10 05:58:25;;;;;;;6.77;5.60;;;12.10;99.90;;;;;;5075385;28;20235;-57
2023/04/10 06:00:53;;;;;;;6.60;5.57;;;12.90;99.90;;;;;;5075451;28;20197;-59
2023/04/10 06:03:20;;;;;;;6.40;5.33;;;13.70;99.90;;;;;;5075522;28;20216;-58
2023/04/10 06:05:47;;;;;;;5.83;5.23;;;14.40;98.50;;;;;;5075046;28;20299;-58
2023/04/10 06:08:13;;;;;;;5.87;5.27;;;14.80;96.30;;;;;;5075095;28;20605;-59
2023/04/10 06:10:40;;;;;;;7.53;5.70;;;15.10;95.80;;;;;;5076505;28;20221;-58
2023/04/10 06:13:07;;;;;;;6.30;5.57;;;15.60;95.10;;;;;;5075797;28;20204;-58
2023/04/10 06:15:34;;;;;;;6.00;5.37;;;16.30;93.60;;;;;;5074853;28;20579;-58
2023/04/10 06:18:02;;;;;;;5.40;4.77;;;16.70;91.70;;;;;;5074767;28;20236;-58
2023/04/10 06:20:29;;;;;;;5.93;5.22;;;16.90;91.30;;;;;;5074769;28;20200;-58
2023/04/10 06:22:56;;;;;;;5.28;4.78;;;17.10;90.10;;;;;;5074907;28;20582;-58
2023/04/10 06:25:22;;;;;;;5.70;4.93;;;17.30;89.70;;;;;;5074812;28;20668;-59
2023/04/10 06:27:49;;;;;;;6.18;5.00;;;17.40;88.70;;;;;;5075114;28;20236;-58
2023/04/10 06:30:16;;;;;;;5.20;4.70;;;17.50;87.20;;;;;;5074712;28;20712;-58
2023/04/10 06:32:43;;;;;;;5.35;4.85;;;17.60;85.60;;;;;;5074650;28;20216;-59
2023/04/10 06:35:12;;;;;;;5.30;4.55;;;17.90;84.60;;;;;;5074919;28;20219;-59
2023/04/10 06:37:38;;;;;;;5.03;4.50;;;18.00;82.70;;;;;;5074100;28;20228;-58
2023/04/10 06:40:07;;;;;;;5.68;5.07;;;17.60;82.50;;;;;;5074993;28;20212;-59
2023/04/10 06:42:33;;;;;;;5.85;5.07;;;17.20;83.00;;;;;;5074884;28;20208;-59
2023/04/10 06:45:00;;;;;;;5.97;5.15;;;17.00;82.70;;;;;;5074848;28;20204;-59
2023/04/10 06:47:27;;;;;;;5.45;4.85;;;16.60;83.40;;;;;;5074271;28;20201;-59
2023/04/10 06:49:54;;;;;;;5.03;4.47;;;16.10;83.60;;;;;;5074403;28;20235;-59
2023/04/10 06:52:22;;;;;;;5.60;4.88;;;15.70;85.30;;;;;;5074567;28;20231;-59
2023/04/10 06:54:49;;;;;;;5.80;5.10;;;15.60;85.80;;;;;;5074622;28;20201;-58
2023/04/10 06:57:16;;;;;;;4.90;4.40;;;15.90;85.10;;;;;;5074510;28;20211;-59
2023/04/10 06:59:42;;;;;;;4.55;4.15;;;16.30;84.80;;;;;;5074925;28;20228;-59
2023/04/10 07:02:09;;;;;;;6.22;5.22;;;16.80;82.00;;;;;;5076959;28;20200;-59
2023/04/10 07:04:36;;;;;;;4.55;4.15;;;17.20;81.90;;;;;;5075597;28;20757;-58
2023/04/10 07:07:04;;;;;;;4.85;4.40;;;18.00;79.70;;;;;;5075289;28;20661;-60
2023/04/10 07:09:32;;;;;;;5.00;4.30;;;18.90;76.90;;;;;;5077210;28;20250;-59
2023/04/10 07:11:59;;;;;;;5.28;4.78;;;19.60;74.90;;;;;;5077402;28;20633;-60
2023/04/10 07:14:26;;;;;;;4.97;4.47;;;20.00;72.70;;;;;;5076691;28;20291;-60
2023/04/10 07:16:53;;;;;;;5.45;4.95;;;20.40;71.50;;;;;;5077565;28;20275;-59
2023/04/10 07:19:20;;;;;;;4.63;4.22;;;20.80;69.80;;;;;;5080298;28;20728;-60
2023/04/10 07:21:48;;;;;;;4.50;4.10;;;21.40;68.20;;;;;;5080109;28;20220;-60
2023/04/10 07:24:16;;;;;;;4.25;3.70;;;21.70;65.70;;;;;;5079224;28;20232;-60
2023/04/10 07:26:44;;;;;;;4.43;4.03;;;22.00;65.50;;;;;;5079671;28;20211;-59
2023/04/10 07:29:11;;;;;;;4.38;3.97;;;22.80;63.50;;;;;;5078866;28;20743;-59
2023/04/10 07:31:38;;;;;;;4.75;4.32;;;23.40;62.90;;;;;;5077881;28;20235;-59
2023/04/10 07:34:05;;;;;;;4.30;3.90;;;24.40;60.80;;;;;;5078459;28;20212;-60
2023/04/10 07:36:32;;;;;;;4.32;3.92;;;25.00;58.10;;;;;;5078302;28;20213;-58
2023/04/10 07:38:59;;;;;;;4.30;3.78;;;25.00;56.40;;;;;;5078073;28;20266;-58
2023/04/10 07:41:26;;;;;;;4.18;3.78;;;25.10;56.50;;;;;;5078622;28;20204;-59
2023/04/10 07:43:54;;;;;;;4.03;3.63;;;25.60;55.30;;;;;;5077870;28;20209;-58
2023/04/10 07:46:21;;;;;;;4.75;4.25;;;25.40;54.60;;;;;;5077377;28;20212;-58
2023/04/10 07:48:48;;;;;;;5.68;3.60;;;25.10;54.80;;;;;;5077625;28;20232;-59
2023/04/10 07:51:15;;;;;;;4.78;4.38;;;24.80;55.00;;;;;;5077779;28;20229;-58
2023/04/10 07:53:42;;;;;;;4.32;3.95;;;24.10;55.20;;;;;;5077525;28;20205;-58
2023/04/10 07:56:16;;;;;;;4.45;4.05;;;23.30;56.50;;;;;;5077984;28;20233;-58
2023/04/10 07:58:42;;;;;;;5.05;3.75;;;22.50;57.70;;;;;;5077068;28;20227;-58
2023/04/10 08:01:11;;;;;;;4.63;4.15;;;22.10;58.20;;;;;;5077213;28;20280;-63
2023/04/10 08:03:39;;;;;;;5.78;5.18;;;22.20;61.60;;;;;;5079048;28;20300;-65
2023/04/10 08:06:08;;;;;;;4.55;4.15;;;22.10;59.70;;;;;;5077651;28;20657;-62
2023/04/10 08:08:36;;;;;;;5.10;4.60;;;22.30;58.90;;;;;;5078262;28;20224;-62
2023/04/10 08:11:03;;;;;;;4.60;3.95;;;22.50;58.40;;;;;;5078047;28;20248;-63
2023/04/10 08:13:30;;;;;;;4.47;4.07;;;22.10;58.50;;;;;;5078308;28;20205;-63
2023/04/10 08:15:57;;;;;;;4.32;3.92;;;21.30;59.30;;;;;;5077608;28;20653;-61
2023/04/10 08:18:25;;;;;;;4.50;4.05;;;20.30;61.60;;;;;;5078254;28;20521;-61
2023/04/10 08:20:52;;;;;;;4.90;4.40;;;19.30;63.40;;;;;;5078279;28;20295;-62
2023/04/10 08:23:19;;;;;;;5.10;4.60;;;18.10;67.00;;;;;;5077382;28;20205;-61
2023/04/10 08:25:46;;;;;;;4.50;4.10;;;17.30;68.60;;;;;;5076922;28;20212;-59
2023/04/10 08:28:13;;;;;;;4.35;3.78;;;16.80;70.20;;;;;;5076240;28;20739;-60
2023/04/10 08:30:39;;;;;;;4.63;3.92;;;16.30;69.90;;;;;;5076797;28;20231;-60
2023/04/10 08:33:06;;;;;;;4.93;4.38;;;16.00;71.30;;;;;;5076824;28;20212;-60
2023/04/10 08:35:34;;;;;;;4.15;3.75;;;15.90;73.90;;;;;;5077941;28;20302;-60
2023/04/10 08:38:01;;;;;;;5.15;3.70;;;16.00;73.70;;;;;;5077392;28;20701;-60
2023/04/10 08:40:28;;;;;;;4.50;3.92;;;16.00;72.30;;;;;;5076822;28;20205;-61
2023/04/10 08:42:55;;;;;;;4.35;3.95;;;16.00;74.30;;;;;;5077723;28;20664;-60
2023/04/10 08:45:22;;;;;;;3.92;3.53;;;16.30;72.10;;;;;;5077207;28;20211;-60
2023/04/10 08:47:52;;;;;;;3.92;3.53;;;16.00;70.60;;;;;;5077298;28;20732;-60
2023/04/10 08:50:19;;;;;;;4.03;3.60;;;15.90;72.90;;;;;;5077470;28;20876;-60
2023/04/10 08:52:52;;;;;;;4.10;3.57;;;15.70;71.90;;;;;;5077488;28;20715;-60
2023/04/10 08:55:20;;;;;;;4.03;3.40;;;15.70;73.10;;;;;;5077746;28;20239;-63
2023/04/10 08:57:47;;;;;;;4.13;3.72;;;15.80;73.20;;;;;;5073872;28;20446;-57
2023/04/10 09:00:15;;;;;;;3.67;3.38;;;16.10;70.90;;;;;;5074305;28;20684;-59
2023/04/10 09:02:42;;;;;;;4.30;3.70;;;15.90;71.60;;;;;;5074489;28;20201;-57
2023/04/10 09:05:12;;;;;;;4.10;3.60;;;15.80;72.40;;;;;;5074682;28;20266;-56
2023/04/10 09:07:39;;;;;;;3.85;3.45;;;15.80;71.70;;;;;;5073910;28;20225;-57
2023/04/10 09:10:09;;;;;;;4.47;3.40;;;16.00;72.00;;;;;;5074177;28;20238;-57
2023/04/10 09:12:46;;;;;;;4.10;3.70;;;16.00;70.60;;;;;;5074221;28;20200;-59
2023/04/10 09:15:13;;;;;;;4.40;3.88;;;15.90;71.50;;;;;;5073998;28;20240;-58
2023/04/10 09:17:55;;;;;;;3.63;3.30;;;16.00;71.80;;;;;;5074468;28;20615;-57
2023/04/10 09:20:24;;;;;;;4.10;3.30;;;15.80;71.70;;;;;;5073936;28;20197;-57
2023/04/10 09:22:51;;;;;;;3.37;2.97;;;15.50;72.80;;;;;;5073870;28;20201;-57
2023/04/10 09:25:34;;;;;;;3.43;3.07;;;15.30;73.10;;;;;;5074207;28;20216;-56
2023/04/10 09:28:03;;;;;;;3.40;3.10;;;15.00;71.40;;;;;;5073499;28;20249;-56
2023/04/10 09:30:35;;;;;;;3.23;2.80;;;15.10;72.70;;;;;;5073850;28;20221;-57
2023/04/10 09:33:02;;;;;;;3.47;3.17;;;15.40;73.00;;;;;;5073743;28;20308;-55
2023/04/10 09:35:47;;;;;;;3.20;2.90;;;15.70;70.90;;;;;;5073763;28;20193;-56
2023/04/10 09:38:15;;;;;;;3.10;2.80;;;15.90;70.00;;;;;;5073715;28;20704;-55
2023/04/10 09:40:44;;;;;;;3.40;3.10;;;15.70;70.80;;;;;;5073281;28;20204;-56
2023/04/10 09:43:22;;;;;;;2.80;2.53;;;15.50;71.40;;;;;;5073384;28;20286;-55
2023/04/10 09:45:51;;;;;;;5.18;3.30;;;15.70;69.00;;;;;;5073624;28;20219;-55
2023/04/10 09:48:19;;;;;;;2.47;2.28;;;15.80;66.50;;;;;;5073416;28;20225;-56
2023/04/10 09:50:46;;;;;;;3.00;2.67;;;16.10;66.30;;;;;;5073427;28;20262;-56
2023/04/10 09:53:15;;;;;;;3.08;2.70;;;16.00;66.70;;;;;;5073469;28;20209;-55
2023/04/10 09:55:44;;;;;;;2.65;2.45;;;15.90;65.80;;;;;;5073159;28;20228;-58
2023/04/10 09:58:11;;;;;;;3.33;3.00;;;15.80;66.20;;;;;;5072913;28;20231;-58
2023/04/10 10:00:41;;;;;;;3.47;2.80;;;15.80;66.80;;;;;;5073405;28;20223;-57
2023/04/10 10:03:10;;;;;;;2.95;2.55;;;16.00;67.30;;;;;;5073394;28;20201;-55
2023/04/10 10:05:42;;;;;;;3.35;2.90;;;16.00;66.10;;;;;;5073307;28;20209;-56
2023/04/10 10:08:11;;;;;;;2.88;2.60;;;15.90;66.40;;;;;;5072855;28;20323;-56
2023/04/10 10:10:44;;;;;;;2.80;2.40;;;16.00;66.80;;;;;;5073108;28;20272;-56
2023/04/10 10:13:17;;;;;;;2.38;2.17;;;16.00;66.20;;;;;;5073223;28;20208;-55
2023/04/10 10:15:50;;;;;;;2.83;2.53;;;16.10;66.20;;;;;;5073210;28;20213;-55
2023/04/10 10:18:26;;;;;;;3.47;2.80;;;16.30;66.20;;;;;;5073453;28;20294;-56
2023/04/10 10:20:53;;;;;;;2.63;2.42;;;16.40;65.80;;;;;;5073006;28;20201;-55
2023/04/10 10:23:22;;;;;;;2.70;2.50;;;16.60;65.90;;;;;;5073144;28;20300;-56
2023/04/10 10:25:50;;;;;;;2.72;2.50;;;16.70;65.10;;;;;;5073077;28;20572;-55
2023/04/10 10:28:20;;;;;;;2.63;2.42;;;16.70;65.50;;;;;;5072697;28;20720;-55
2023/04/10 10:30:48;;;;;;;3.43;2.80;;;16.70;66.10;;;;;;5073166;28;20236;-57
2023/04/10 10:33:15;;;;;;;2.90;2.60;;;16.90;65.20;;;;;;5073596;28;20267;-55
2023/04/10 10:35:42;;;;;;;3.00;2.65;;;16.90;65.30;;;;;;5072975;28;20559;-56
2023/04/10 10:38:10;;;;;;;2.95;2.65;;;17.10;66.50;;;;;;5073047;28;20252;-56
2023/04/10 10:40:47;;;;;;;2.58;2.38;;;17.20;64.80;;;;;;5072905;28;20552;-55
2023/04/10 10:43:25;;;;;;;3.63;2.42;;;17.30;64.30;;;;;;5072913;28;20209;-56
2023/04/10 10:45:58;;;;;;;3.03;2.72;;;17.30;64.10;;;;;;5072981;28;20240;-56
2023/04/10 10:48:25;;;;;;;2.50;2.30;;;17.50;64.90;;;;;;5072531;28;20697;-55
2023/04/10 10:50:55;;;;;;;2.65;2.45;;;17.80;63.10;;;;;;5072523;28;20712;-57
2023/04/10 10:53:36;;;;;;;2.30;2.10;;;18.00;62.30;;;;;;5073341;28;20236;-57
2023/04/10 10:56:35;;;;;;;2.45;2.25;;;18.10;61.30;;;;;;5072719;28;20292;-56
2023/04/10 10:59:03;;;;;;;2.50;2.30;;;18.30;61.80;;;;;;5072431;28;20593;-55
2023/04/10 11:01:30;;;;;;;2.47;2.28;;;18.70;61.00;;;;;;5072748;28;20234;-57
2023/04/10 11:03:58;;;;;;;3.13;2.13;;;19.00;59.40;;;;;;5072234;28;20565;-56
2023/04/10 11:06:50;;;;;;;2.25;2.05;;;19.10;59.60;;;;;;5072514;28;20220;-56
2023/04/10 11:09:52;;;;;;;2.78;2.20;;;19.20;58.80;;;;;;5072492;28;20312;-57
2023/04/10 11:12:21;;;;;;;2.47;2.20;;;19.30;58.80;;;;;;5072484;28;20219;-55
2023/04/10 11:14:59;;;;;;;2.22;2.03;;;19.10;58.80;;;;;;5072441;28;20747;-58
2023/04/10 11:17:47;;;;;;;2.20;1.90;;;19.20;58.80;;;;;;5072177;28;20212;-55
2023/04/10 11:20:14;;;;;;;2.40;2.20;;;19.30;57.70;;;;;;5072664;28;20223;-56
2023/04/10 11:23:13;;;;;;;2.25;2.05;;;19.30;58.20;;;;;;5072790;28;20227;-56
2023/04/10 11:25:49;;;;;;;2.53;1.95;;;19.50;57.50;;;;;;5072682;28;20330;-56
2023/04/10 11:28:35;;;;;;;3.08;2.00;;;19.70;56.20;;;;;;5072606;28;20581;-56
2023/04/10 11:31:18;;;;;;;2.33;2.13;;;19.70;57.10;;;;;;5072779;28;20228;-56
2023/04/10 11:33:45;;;;;;;2.53;2.20;;;19.90;57.60;;;;;;5073083;28;20209;-56
2023/04/10 11:36:16;;;;;;;2.40;2.20;;;19.90;57.40;;;;;;5072695;28;20236;-56
2023/04/10 11:38:54;;;;;;;2.38;2.10;;;19.80;57.00;;;;;;5072503;28;20618;-60
2023/04/10 11:41:21;;;;;;;1.98;1.77;;;19.70;57.60;;;;;;5072642;28;20200;-55
2023/04/10 11:43:51;;;;;;;2.30;2.00;;;19.40;56.50;;;;;;5072660;28;20248;-56
2023/04/10 11:46:20;;;;;;;1.98;1.77;;;19.20;56.00;;;;;;5072366;28;20308;-55
2023/04/10 11:48:47;;;;;;;2.20;2.00;;;19.20;56.60;;;;;;5072296;28;20228;-58
2023/04/10 11:51:14;;;;;;;2.95;2.20;;;19.00;57.10;;;;;;5072321;28;20312;-55
2023/04/10 11:53:42;;;;;;;2.10;1.90;;;19.00;57.20;;;;;;5072588;28;20231;-56
2023/04/10 11:56:16;;;;;;;2.08;1.88;;;19.20;57.30;;;;;;5072565;28;20266;-56
2023/04/10 11:58:43;;;;;;;2.75;1.75;;;19.10;57.20;;;;;;5072141;28;20228;-57
2023/04/10 12:01:13;;;;;;;2.13;1.92;;;19.10;57.70;;;;;;5072089;28;20744;-55
2023/04/10 12:03:43;;;;;;;2.38;1.90;;;19.10;57.80;;;;;;5074245;28;20207;-56
2023/04/10 12:06:11;;;;;;;1.65;1.55;;;19.10;55.70;;;;;;5075822;28;20201;-56
2023/04/10 12:08:40;;;;;;;1.52;1.42;;;19.00;56.30;;;;;;5075515;28;20233;-56
2023/04/10 12:11:08;;;;;;;2.40;2.00;;;19.20;54.90;;;;;;5075769;28;20278;-55
2023/04/10 12:13:35;;;;;;;2.03;1.70;;;19.50;55.40;;;;;;5075330;28;20216;-55
2023/04/10 12:16:04;;;;;;;1.65;1.55;;;19.70;55.80;;;;;;5075567;28;20213;-56
2023/04/10 12:18:32;;;;;;;1.80;1.67;;;19.80;55.80;;;;;;5075458;28;20229;-55
2023/04/10 12:21:00;;;;;;;1.60;1.50;;;19.70;54.70;;;;;;5075397;28;20669;-56
2023/04/10 12:23:28;;;;;;;1.98;1.77;;;19.60;54.20;;;;;;5075608;28;20244;-55
2023/04/10 12:26:10;;;;;;;2.13;1.73;;;19.40;53.90;;;;;;5075423;28;20205;-56
2023/04/10 12:28:38;;;;;;;1.75;1.40;;;19.30;53.50;;;;;;5075207;28;20240;-56
2023/04/10 12:31:06;;;;;;;1.90;1.63;;;19.10;53.20;;;;;;5074980;28;20679;-56
2023/04/10 12:33:33;;;;;;;1.60;1.45;;;19.20;53.40;;;;;;5075343;28;20262;-57
2023/04/10 12:36:01;;;;;;;1.50;1.33;;;19.40;52.30;;;;;;5075598;28;20295;-55
2023/04/10 12:38:39;;;;;;;1.58;1.48;;;19.50;52.30;;;;;;5075448;28;20315;-54
2023/04/10 12:41:07;;;;;;;1.80;1.40;;;19.60;52.50;;;;;;5075441;28;20582;-56
2023/04/10 12:43:36;;;;;;;2.30;1.65;;;19.70;51.70;;;;;;5075665;28;20287;-56
2023/04/10 12:46:04;;;;;;;1.63;1.52;;;19.90;51.70;;;;;;5075370;28;20239;-56
2023/04/10 12:48:31;;;;;;;2.05;1.85;;;20.00;51.50;;;;;;5074881;28;20236;-54
2023/04/10 12:50:58;;;;;;;1.60;1.50;;;20.10;51.70;;;;;;5074734;28;20209;-55
2023/04/10 12:53:27;;;;;;;1.52;1.35;;;20.30;51.20;;;;;;5075155;28;20205;-55
2023/04/10 12:56:02;;;;;;;1.20;1.10;;;20.10;49.80;;;;;;5075144;28;20228;-55
2023/04/10 12:58:30;;;;;;;1.20;1.10;;;20.10;48.90;;;;;;5074740;28;20315;-56